메인 페이지
METAR-TAF:

METAR-TAF

공항 :

Boscombe Down, 잉글랜드

위도: 51-10N, 경도: 001-45W, 고도: 124m

현재 날씨관측

예보는 42분 전, 12:50시(UTC)에 발표되었습니다.
9kt
온도 18°C
습도 94%
기압 1010 hPa
시정 10km 이상
고도 400ft 상공 구름 보통
고도 3500ft 상공 흐림
약한비

METAR: EGDM 251250Z 19009KT 9999 -RA SCT004 OVC035 18/17 Q1010 TEMPO SCT005 RMK YLO2 TEMPO YLO1

시각: 14:32 (13:32 UTC)

예보

예보는 1 시간 6분 전, 12:26시(UTC)에 발표되었습니다.
예보 대상 시간: 25일 12시부터 25일 18시까지 (UTC)
남남서12kt
시정 10km 이상
고도 500ft 상공 구름 보통
약한비
확률 40% :
일시적
25일 12시부터 25일 15시까지 (UTC)
시정: 4500m
고도 400ft 상공 구름 보통
약한비, 이슬비
확률 30% :
일시적
25일 12시부터 25일 15시까지 (UTC)
고도 600ft 상공 구름 조금
고도 3000ft 상공 구름 많음
일시적
25일 15시부터 25일 18시까지 (UTC)
시정: 4500m
고도 400ft 상공 구름 보통
비, 이슬비
확률 30% :
일시적
25일 15시부터 25일 18시까지 (UTC)
시정: 2000m
고도 200ft 상공 구름 보통
이슬비,

TAF: EGDM 251226Z 2512/2518 21012KT 9999 -RA SCT005 PROB40 TEMPO 2512/2515 4500 -RADZ SCT004 PROB30 TEMPO 2512/2515 FEW006 BKN030 TEMPO 2515/2518 4500 RADZ SCT004 PROB30 TEMPO 2515/2518 2000 DZ SCT002

4,000개 이상의 공항 관측 자료 및 예보 (METAR 및 TAF 보고).

지도상에서 검색 가능한 기상관측소가 노란 점과 빨간 점으로 표시되어 있습니다.

기상관측소 명을 보려면 표시 위로 마우스를 이동하세요.

날씨 관측과 예보를 보려면 클릭하세요.

지도 변경 : 확대하려면 엑스 표시가 있는 녹색 버튼, 축소하려면 빼기 표시가 있는 녹색 버튼, 다음 페이지의 지도를 보려면 녹색 화살표를 클릭하세요.


METAR-TAF: